UAL1045 KSFO-KGEG
Flight info
| Callsign | UAL1045 |
|---|---|
| Flight time | 1h 42m |
| Altitude | 36000 |
| Route | TRUKN2 DEDHD KNZIE/N0453F370 BREWW KS12I GEG |
| Aircraft | A320/M-SDE3FGHIRWY/LB1 |
Departure
| Time | 2026-04-25 12:48 |
|---|---|
| Airport | San Francisco International Airport (KSFO) |
Arrival
| Time | 2026-04-25 14:30 |
|---|---|
| Airport | Spokane International Airport (KGEG) |
| Time | Latitude | Longitude | Altitude | Speed | Heading |
|---|---|---|---|---|---|
| 2026-04-25 12:29 | 37.62021 | -122.38940 | 18 ft | 0 kts | 27° |
| 2026-04-25 12:37 | 37.62014 | -122.38945 | 18 ft | 4 kts | 27° |
| 2026-04-25 12:37 | 37.61989 | -122.38961 | 15 ft | 4 kts | 26° |
| 2026-04-25 12:38 | 37.61965 | -122.38975 | 15 ft | 4 kts | 14° |
| 2026-04-25 12:38 | 37.61942 | -122.38976 | 16 ft | 4 kts | 315° |
| 2026-04-25 12:38 | 37.61937 | -122.38967 | 15 ft | 1 kts | 297° |
| 2026-04-25 12:38 | 37.61937 | -122.38966 | 15 ft | 0 kts | 297° |
| 2026-04-25 12:40 | 37.61938 | -122.38970 | 15 ft | 2 kts | 297° |
| 2026-04-25 12:40 | 37.61956 | -122.39014 | 15 ft | 9 kts | 297° |
| 2026-04-25 12:41 | 37.61990 | -122.39097 | 15 ft | 12 kts | 297° |
| 2026-04-25 12:41 | 37.62034 | -122.39194 | 16 ft | 13 kts | 313° |
| 2026-04-25 12:41 | 37.62119 | -122.39178 | 17 ft | 15 kts | 34° |
| 2026-04-25 12:41 | 37.62215 | -122.39109 | 16 ft | 17 kts | 42° |
| 2026-04-25 12:42 | 37.62260 | -122.38967 | 17 ft | 19 kts | 72° |
| 2026-04-25 12:42 | 37.62264 | -122.38911 | 15 ft | 19 kts | 103° |
| 2026-04-25 12:42 | 37.62150 | -122.38638 | 19 ft | 22 kts | 118° |
| 2026-04-25 12:42 | 37.62102 | -122.38524 | 20 ft | 22 kts | 118° |
| 2026-04-25 12:43 | 37.62029 | -122.38349 | 23 ft | 23 kts | 116° |
| 2026-04-25 12:43 | 37.61952 | -122.38166 | 22 ft | 25 kts | 118° |
| 2026-04-25 12:43 | 37.61794 | -122.37751 | 18 ft | 25 kts | 111° |
| 2026-04-25 12:44 | 37.61728 | -122.37540 | 20 ft | 27 kts | 112° |
| 2026-04-25 12:44 | 37.61645 | -122.37334 | 23 ft | 24 kts | 119° |
| 2026-04-25 12:44 | 37.61484 | -122.36957 | 23 ft | 22 kts | 124° |
| 2026-04-25 12:45 | 37.61379 | -122.36797 | 19 ft | 25 kts | 127° |
| 2026-04-25 12:45 | 37.61292 | -122.36608 | 17 ft | 27 kts | 117° |
| 2026-04-25 12:45 | 37.61129 | -122.36217 | 19 ft | 25 kts | 118° |
| 2026-04-25 12:46 | 37.61061 | -122.36055 | 20 ft | 14 kts | 116° |
| 2026-04-25 12:46 | 37.61063 | -122.35946 | 21 ft | 14 kts | 58° |
| 2026-04-25 12:46 | 37.61144 | -122.35877 | 20 ft | 13 kts | 24° |
| 2026-04-25 12:46 | 37.61203 | -122.35921 | 18 ft | 8 kts | 297° |
| 2026-04-25 12:47 | 37.61207 | -122.35929 | 18 ft | 0 kts | 297° |
| 2026-04-25 12:47 | 37.61213 | -122.35944 | 18 ft | 9 kts | 297° |
| 2026-04-25 12:47 | 37.61353 | -122.36279 | 15 ft | 78 kts | 298° |
| 2026-04-25 12:47 | 37.61700 | -122.37103 | 22 ft | 132 kts | 298° |
| 2026-04-25 12:48 | 37.62200 | -122.38289 | 110 ft | 165 kts | 297° |
| 2026-04-25 12:48 | 37.62776 | -122.39529 | 749 ft | 165 kts | 301° |
| 2026-04-25 12:48 | 37.63659 | -122.40420 | 1446 ft | 169 kts | 342° |
| 2026-04-25 12:48 | 37.64859 | -122.40285 | 1887 ft | 190 kts | 24° |
| 2026-04-25 12:49 | 37.65846 | -122.39017 | 2075 ft | 221 kts | 57° |
| 2026-04-25 12:49 | 37.66540 | -122.37151 | 2395 ft | 248 kts | 66° |
| 2026-04-25 12:49 | 37.67191 | -122.35020 | 2842 ft | 270 kts | 68° |
| 2026-04-25 12:49 | 37.67853 | -122.32783 | 3753 ft | 272 kts | 70° |
| 2026-04-25 12:50 | 37.68548 | -122.30507 | 4715 ft | 274 kts | 68° |
| 2026-04-25 12:50 | 37.69290 | -122.28288 | 5655 ft | 276 kts | 68° |
| 2026-04-25 12:50 | 37.70074 | -122.26057 | 6499 ft | 280 kts | 67° |
| 2026-04-25 12:50 | 37.71025 | -122.23900 | 7303 ft | 285 kts | 53° |
| 2026-04-25 12:51 | 37.72483 | -122.22177 | 8116 ft | 290 kts | 33° |
| 2026-04-25 12:51 | 37.74314 | -122.21102 | 8940 ft | 293 kts | 15° |
| 2026-04-25 12:51 | 37.76328 | -122.20690 | 9803 ft | 294 kts | 7° |
| 2026-04-25 12:51 | 37.78388 | -122.20367 | 10337 ft | 307 kts | 7° |
| 2026-04-25 12:52 | 37.80594 | -122.20018 | 10520 ft | 331 kts | 7° |
| 2026-04-25 12:52 | 37.82945 | -122.19639 | 10821 ft | 347 kts | 7° |
| 2026-04-25 12:52 | 37.85357 | -122.19245 | 11433 ft | 353 kts | 7° |
| 2026-04-25 12:52 | 37.87802 | -122.18842 | 12122 ft | 356 kts | 7° |
| 2026-04-25 12:53 | 37.90270 | -122.18434 | 12818 ft | 359 kts | 7° |
| 2026-04-25 12:53 | 37.92752 | -122.18024 | 13500 ft | 362 kts | 7° |
| 2026-04-25 12:53 | 37.95261 | -122.17611 | 14124 ft | 365 kts | 7° |
| 2026-04-25 12:53 | 37.97790 | -122.17196 | 14722 ft | 368 kts | 7° |
| 2026-04-25 12:54 | 38.00337 | -122.16780 | 15298 ft | 371 kts | 7° |
| 2026-04-25 12:54 | 38.02905 | -122.16357 | 15881 ft | 374 kts | 7° |
| 2026-04-25 12:54 | 38.05499 | -122.15929 | 16454 ft | 377 kts | 7° |
| 2026-04-25 12:54 | 38.08114 | -122.15497 | 17035 ft | 380 kts | 7° |
| 2026-04-25 12:55 | 38.10750 | -122.15064 | 17620 ft | 384 kts | 7° |
| 2026-04-25 12:55 | 38.12543 | -122.14769 | 18018 ft | 386 kts | 7° |
| 2026-04-25 12:55 | 38.16091 | -122.14183 | 18731 ft | 391 kts | 7° |
| 2026-04-25 12:55 | 38.18803 | -122.13733 | 19231 ft | 395 kts | 6° |
| 2026-04-25 12:56 | 38.21550 | -122.13277 | 19729 ft | 400 kts | 6° |
| 2026-04-25 12:56 | 38.24325 | -122.12816 | 20219 ft | 405 kts | 6° |
| 2026-04-25 12:56 | 38.27133 | -122.12350 | 20745 ft | 408 kts | 6° |
| 2026-04-25 12:56 | 38.29995 | -122.11875 | 21226 ft | 412 kts | 6° |
| 2026-04-25 12:57 | 38.32818 | -122.11410 | 21717 ft | 415 kts | 5° |
| 2026-04-25 12:57 | 38.35737 | -122.11196 | 22273 ft | 415 kts | 360° |
| 2026-04-25 12:57 | 38.38626 | -122.11080 | 22775 ft | 417 kts | 360° |
| 2026-04-25 12:57 | 38.41544 | -122.10954 | 23250 ft | 421 kts | 360° |
| 2026-04-25 12:58 | 38.44477 | -122.10822 | 23661 ft | 424 kts | 359° |
| 2026-04-25 12:58 | 38.47434 | -122.10687 | 24019 ft | 427 kts | 359° |
| 2026-04-25 12:58 | 38.50417 | -122.10552 | 24379 ft | 430 kts | 359° |
| 2026-04-25 12:58 | 38.53411 | -122.10417 | 24736 ft | 433 kts | 359° |
| 2026-04-25 12:59 | 38.56427 | -122.10282 | 25106 ft | 435 kts | 359° |
| 2026-04-25 12:59 | 38.59461 | -122.10147 | 25456 ft | 437 kts | 358° |
| 2026-04-25 12:59 | 38.62513 | -122.10015 | 25799 ft | 440 kts | 358° |
| 2026-04-25 12:59 | 38.65576 | -122.09887 | 26127 ft | 443 kts | 358° |
| 2026-04-25 13:00 | 38.68666 | -122.09757 | 26462 ft | 445 kts | 358° |
| 2026-04-25 13:00 | 38.69714 | -122.09713 | 26575 ft | 446 kts | 358° |
| 2026-04-25 13:00 | 38.74899 | -122.09487 | 27130 ft | 451 kts | 358° |
| 2026-04-25 13:00 | 38.78048 | -122.09347 | 27451 ft | 454 kts | 357° |
| 2026-04-25 13:01 | 38.81207 | -122.09204 | 27773 ft | 457 kts | 357° |
| 2026-04-25 13:01 | 38.84395 | -122.09060 | 28101 ft | 459 kts | 357° |
| 2026-04-25 13:01 | 38.87600 | -122.08917 | 28416 ft | 462 kts | 357° |
| 2026-04-25 13:01 | 38.90820 | -122.08776 | 28716 ft | 464 kts | 356° |
| 2026-04-25 13:02 | 38.94060 | -122.08637 | 29032 ft | 468 kts | 357° |
| 2026-04-25 13:02 | 38.97326 | -122.08495 | 29280 ft | 471 kts | 357° |
| 2026-04-25 13:02 | 39.00616 | -122.08349 | 29629 ft | 473 kts | 357° |
| 2026-04-25 13:02 | 39.03894 | -122.08204 | 30038 ft | 472 kts | 357° |
| 2026-04-25 13:03 | 39.07183 | -122.08056 | 30410 ft | 472 kts | 357° |
| 2026-04-25 13:03 | 39.10460 | -122.07907 | 30819 ft | 470 kts | 356° |
| 2026-04-25 13:03 | 39.13722 | -122.07760 | 31254 ft | 469 kts | 356° |
| 2026-04-25 13:03 | 39.16979 | -122.07612 | 31691 ft | 467 kts | 356° |
| 2026-04-25 13:04 | 39.20217 | -122.07464 | 32120 ft | 465 kts | 356° |
| 2026-04-25 13:04 | 39.23441 | -122.07324 | 32514 ft | 464 kts | 356° |
| 2026-04-25 13:04 | 39.26709 | -122.07182 | 32948 ft | 462 kts | 356° |
| 2026-04-25 13:04 | 39.29877 | -122.07037 | 33384 ft | 461 kts | 355° |
| 2026-04-25 13:05 | 39.33116 | -122.06888 | 33828 ft | 459 kts | 355° |
| 2026-04-25 13:05 | 39.36300 | -122.06745 | 34194 ft | 458 kts | 355° |
| 2026-04-25 13:05 | 39.39491 | -122.06603 | 34527 ft | 457 kts | 355° |
| 2026-04-25 13:05 | 39.42667 | -122.06464 | 34840 ft | 457 kts | 355° |
| 2026-04-25 13:06 | 39.45842 | -122.06328 | 35139 ft | 457 kts | 355° |
| 2026-04-25 13:06 | 39.49016 | -122.06190 | 35429 ft | 456 kts | 355° |
| 2026-04-25 13:06 | 39.52192 | -122.06049 | 35751 ft | 456 kts | 355° |
| 2026-04-25 13:06 | 39.55368 | -122.05907 | 35880 ft | 458 kts | 356° |
| 2026-04-25 13:07 | 39.61757 | -122.05622 | 35906 ft | 460 kts | 356° |
| 2026-04-25 13:07 | 39.68162 | -122.05338 | 35907 ft | 461 kts | 356° |
| 2026-04-25 13:08 | 39.74574 | -122.05049 | 35905 ft | 461 kts | 356° |
| 2026-04-25 13:08 | 39.80978 | -122.04755 | 35906 ft | 461 kts | 356° |
| 2026-04-25 13:09 | 39.87383 | -122.04457 | 35908 ft | 461 kts | 356° |
| 2026-04-25 13:09 | 39.93792 | -122.04163 | 35927 ft | 460 kts | 356° |
| 2026-04-25 13:10 | 40.00191 | -122.03876 | 35919 ft | 460 kts | 356° |
| 2026-04-25 13:10 | 40.06583 | -122.03590 | 35912 ft | 460 kts | 356° |
| 2026-04-25 13:11 | 40.12977 | -122.03298 | 35916 ft | 460 kts | 356° |
| 2026-04-25 13:11 | 40.19376 | -122.03002 | 35916 ft | 460 kts | 356° |
| 2026-04-25 13:12 | 40.25771 | -122.02704 | 35914 ft | 460 kts | 356° |
| 2026-04-25 13:12 | 40.30049 | -122.02510 | 35932 ft | 460 kts | 356° |
| 2026-04-25 13:13 | 40.38592 | -122.02127 | 35918 ft | 459 kts | 356° |
| 2026-04-25 13:13 | 40.44971 | -122.01839 | 35910 ft | 458 kts | 356° |
| 2026-04-25 13:14 | 40.50265 | -122.01589 | 35914 ft | 458 kts | 356° |
| 2026-04-25 13:14 | 40.57709 | -122.01237 | 35917 ft | 457 kts | 356° |
| 2026-04-25 13:15 | 40.64062 | -122.00941 | 35906 ft | 457 kts | 356° |
| 2026-04-25 13:15 | 40.70409 | -122.00649 | 35916 ft | 456 kts | 356° |
| 2026-04-25 13:16 | 40.75676 | -122.00411 | 35910 ft | 455 kts | 356° |
| 2026-04-25 13:16 | 40.82010 | -122.00118 | 35899 ft | 455 kts | 356° |
| 2026-04-25 13:17 | 40.88334 | -121.99811 | 35912 ft | 454 kts | 357° |
| 2026-04-25 13:17 | 40.94645 | -121.99513 | 35908 ft | 453 kts | 356° |
| 2026-04-25 13:18 | 41.00944 | -121.99222 | 35912 ft | 453 kts | 356° |
| 2026-04-25 13:18 | 41.07279 | -121.98929 | 35928 ft | 452 kts | 357° |
| 2026-04-25 13:19 | 41.13558 | -121.98640 | 35938 ft | 452 kts | 356° |
| 2026-04-25 13:19 | 41.18781 | -121.98394 | 35934 ft | 452 kts | 356° |
| 2026-04-25 13:20 | 41.26127 | -121.98041 | 35929 ft | 452 kts | 357° |
| 2026-04-25 13:20 | 41.32406 | -121.97733 | 35934 ft | 451 kts | 357° |
| 2026-04-25 13:21 | 41.38675 | -121.97443 | 35935 ft | 450 kts | 356° |
| 2026-04-25 13:21 | 41.44939 | -121.97154 | 35959 ft | 450 kts | 356° |
| 2026-04-25 13:22 | 41.51199 | -121.96845 | 35946 ft | 449 kts | 356° |
| 2026-04-25 13:23 | 41.60460 | -121.94276 | 35938 ft | 460 kts | 13° |
| 2026-04-25 13:23 | 41.66534 | -121.91566 | 35928 ft | 460 kts | 13° |
| 2026-04-25 13:24 | 41.72611 | -121.88858 | 35937 ft | 460 kts | 13° |
| 2026-04-25 13:24 | 41.78674 | -121.86155 | 35931 ft | 459 kts | 13° |
| 2026-04-25 13:25 | 41.84733 | -121.83450 | 35938 ft | 458 kts | 13° |
| 2026-04-25 13:25 | 41.90775 | -121.80746 | 35934 ft | 458 kts | 13° |
| 2026-04-25 13:26 | 41.96815 | -121.78045 | 35963 ft | 457 kts | 13° |
| 2026-04-25 13:26 | 42.02880 | -121.75319 | 35939 ft | 456 kts | 13° |
| 2026-04-25 13:27 | 42.08898 | -121.72610 | 35937 ft | 456 kts | 13° |
| 2026-04-25 13:27 | 42.14905 | -121.69900 | 35933 ft | 455 kts | 13° |
| 2026-04-25 13:28 | 42.20916 | -121.67186 | 35933 ft | 456 kts | 13° |
| 2026-04-25 13:28 | 42.26925 | -121.64464 | 35930 ft | 456 kts | 13° |
| 2026-04-25 13:29 | 42.32939 | -121.61736 | 35936 ft | 456 kts | 13° |
| 2026-04-25 13:29 | 42.38951 | -121.59010 | 35933 ft | 455 kts | 13° |
| 2026-04-25 13:30 | 42.47950 | -121.54910 | 35956 ft | 455 kts | 13° |
| 2026-04-25 13:31 | 42.56936 | -121.50802 | 35951 ft | 454 kts | 13° |
| 2026-04-25 13:31 | 42.62920 | -121.48060 | 35957 ft | 453 kts | 13° |
| 2026-04-25 13:32 | 42.68875 | -121.45328 | 35932 ft | 450 kts | 12° |
| 2026-04-25 13:32 | 42.74795 | -121.42600 | 35936 ft | 449 kts | 12° |
| 2026-04-25 13:33 | 42.80714 | -121.39866 | 35934 ft | 449 kts | 12° |
| 2026-04-25 13:33 | 42.86641 | -121.37138 | 35942 ft | 450 kts | 13° |
| 2026-04-25 13:34 | 42.92561 | -121.34402 | 35976 ft | 448 kts | 13° |
| 2026-04-25 13:34 | 42.98466 | -121.31659 | 35959 ft | 448 kts | 13° |
| 2026-04-25 13:35 | 43.04356 | -121.28917 | 35971 ft | 447 kts | 13° |
| 2026-04-25 13:35 | 43.10245 | -121.26178 | 35971 ft | 447 kts | 13° |
| 2026-04-25 13:36 | 43.16127 | -121.23440 | 35973 ft | 445 kts | 13° |
| 2026-04-25 13:36 | 43.21980 | -121.20708 | 35970 ft | 444 kts | 13° |
| 2026-04-25 13:37 | 43.27863 | -121.17954 | 35967 ft | 444 kts | 13° |
| 2026-04-25 13:37 | 43.33708 | -121.15205 | 35982 ft | 444 kts | 13° |
| 2026-04-25 13:38 | 43.39556 | -121.12445 | 35977 ft | 444 kts | 13° |
| 2026-04-25 13:38 | 43.45406 | -121.09689 | 36000 ft | 444 kts | 13° |
| 2026-04-25 13:39 | 43.51256 | -121.06925 | 36009 ft | 445 kts | 13° |
| 2026-04-25 13:39 | 43.57111 | -121.04146 | 35993 ft | 445 kts | 13° |
| 2026-04-25 13:40 | 43.62972 | -121.01373 | 36004 ft | 445 kts | 13° |
| 2026-04-25 13:40 | 43.68826 | -120.98591 | 36017 ft | 445 kts | 13° |
| 2026-04-25 13:41 | 43.74682 | -120.95802 | 36022 ft | 445 kts | 13° |
| 2026-04-25 13:41 | 43.80550 | -120.93004 | 36019 ft | 446 kts | 14° |
| 2026-04-25 13:42 | 43.86416 | -120.90194 | 36030 ft | 446 kts | 14° |
| 2026-04-25 13:42 | 43.92277 | -120.87383 | 36039 ft | 446 kts | 14° |
| 2026-04-25 13:43 | 43.98132 | -120.84571 | 36033 ft | 446 kts | 14° |
| 2026-04-25 13:43 | 44.03719 | -120.80683 | 36028 ft | 454 kts | 28° |
| 2026-04-25 13:44 | 44.09040 | -120.75928 | 36027 ft | 454 kts | 28° |
| 2026-04-25 13:44 | 44.14357 | -120.71166 | 36037 ft | 454 kts | 28° |
| 2026-04-25 13:45 | 44.19671 | -120.66428 | 36033 ft | 454 kts | 28° |
| 2026-04-25 13:45 | 44.24982 | -120.61680 | 36029 ft | 453 kts | 28° |
| 2026-04-25 13:46 | 44.30290 | -120.56923 | 36028 ft | 453 kts | 28° |
| 2026-04-25 13:46 | 44.35594 | -120.52144 | 36034 ft | 453 kts | 29° |
| 2026-04-25 13:47 | 44.40886 | -120.47371 | 36037 ft | 453 kts | 29° |
| 2026-04-25 13:47 | 44.46177 | -120.42586 | 36032 ft | 453 kts | 29° |
| 2026-04-25 13:48 | 44.51466 | -120.37798 | 36032 ft | 452 kts | 29° |
| 2026-04-25 13:48 | 44.56785 | -120.32975 | 36042 ft | 452 kts | 30° |
| 2026-04-25 13:49 | 44.61173 | -120.28987 | 36030 ft | 452 kts | 30° |
| 2026-04-25 13:49 | 44.66451 | -120.24179 | 36032 ft | 452 kts | 30° |
| 2026-04-25 13:50 | 44.71725 | -120.19354 | 36034 ft | 452 kts | 30° |
| 2026-04-25 13:50 | 44.76993 | -120.14529 | 36051 ft | 452 kts | 30° |
| 2026-04-25 13:51 | 44.82271 | -120.09697 | 36042 ft | 453 kts | 30° |
| 2026-04-25 13:51 | 44.87551 | -120.04850 | 36038 ft | 453 kts | 30° |
| 2026-04-25 13:52 | 44.92827 | -119.99976 | 36043 ft | 454 kts | 30° |
| 2026-04-25 13:52 | 44.98111 | -119.95098 | 36054 ft | 454 kts | 31° |
| 2026-04-25 13:53 | 45.03402 | -119.90205 | 36052 ft | 454 kts | 31° |
| 2026-04-25 13:53 | 45.08697 | -119.85306 | 36049 ft | 455 kts | 31° |
| 2026-04-25 13:54 | 45.13989 | -119.80393 | 36044 ft | 455 kts | 31° |
| 2026-04-25 13:54 | 45.19281 | -119.75461 | 36056 ft | 455 kts | 31° |
| 2026-04-25 13:55 | 45.24608 | -119.70484 | 36042 ft | 456 kts | 31° |
| 2026-04-25 13:55 | 45.29900 | -119.65524 | 36045 ft | 456 kts | 31° |
| 2026-04-25 13:56 | 45.35197 | -119.60550 | 36051 ft | 456 kts | 31° |
| 2026-04-25 13:56 | 45.40492 | -119.55578 | 36046 ft | 456 kts | 31° |
| 2026-04-25 13:57 | 45.45787 | -119.50595 | 36053 ft | 456 kts | 32° |
| 2026-04-25 13:57 | 45.51071 | -119.45590 | 36047 ft | 456 kts | 32° |
| 2026-04-25 13:58 | 45.56363 | -119.40580 | 36047 ft | 456 kts | 32° |
| 2026-04-25 13:58 | 45.61650 | -119.35560 | 36062 ft | 456 kts | 32° |
| 2026-04-25 13:59 | 45.62543 | -119.34711 | 36058 ft | 456 kts | 32° |
| 2026-04-25 13:59 | 45.72782 | -119.24953 | 36047 ft | 456 kts | 32° |
| 2026-04-25 14:00 | 45.78065 | -119.19913 | 36042 ft | 456 kts | 32° |
| 2026-04-25 14:00 | 45.82457 | -119.15710 | 36043 ft | 456 kts | 32° |
| 2026-04-25 14:01 | 45.87736 | -119.10647 | 36048 ft | 456 kts | 32° |
| 2026-04-25 14:01 | 45.93006 | -119.05566 | 36038 ft | 456 kts | 32° |
| 2026-04-25 14:02 | 45.98274 | -119.00486 | 36038 ft | 456 kts | 32° |
| 2026-04-25 14:02 | 46.00909 | -118.97943 | 35912 ft | 456 kts | 32° |
| 2026-04-25 14:02 | 46.03533 | -118.95405 | 35668 ft | 455 kts | 32° |
| 2026-04-25 14:02 | 46.05308 | -118.93688 | 35511 ft | 454 kts | 32° |
| 2026-04-25 14:03 | 46.08817 | -118.90292 | 35191 ft | 454 kts | 33° |
| 2026-04-25 14:03 | 46.11408 | -118.87782 | 34850 ft | 453 kts | 33° |
| 2026-04-25 14:03 | 46.14056 | -118.85211 | 34230 ft | 453 kts | 33° |
| 2026-04-25 14:03 | 46.16666 | -118.82670 | 33524 ft | 453 kts | 33° |
| 2026-04-25 14:04 | 46.19245 | -118.80153 | 32789 ft | 453 kts | 33° |
| 2026-04-25 14:04 | 46.21886 | -118.77575 | 32038 ft | 452 kts | 33° |
| 2026-04-25 14:04 | 46.24495 | -118.75031 | 31311 ft | 451 kts | 34° |
| 2026-04-25 14:04 | 46.27090 | -118.72498 | 30595 ft | 450 kts | 34° |
| 2026-04-25 14:05 | 46.29671 | -118.69977 | 30076 ft | 444 kts | 34° |
| 2026-04-25 14:05 | 46.32213 | -118.67490 | 29443 ft | 439 kts | 34° |
| 2026-04-25 14:05 | 46.34729 | -118.65026 | 28811 ft | 434 kts | 34° |
| 2026-04-25 14:05 | 46.37217 | -118.62584 | 28187 ft | 430 kts | 34° |
| 2026-04-25 14:06 | 46.39673 | -118.60169 | 27570 ft | 425 kts | 34° |
| 2026-04-25 14:06 | 46.42112 | -118.57769 | 26975 ft | 421 kts | 34° |
| 2026-04-25 14:06 | 46.44521 | -118.55392 | 26398 ft | 417 kts | 34° |
| 2026-04-25 14:06 | 46.46907 | -118.53034 | 25830 ft | 413 kts | 34° |
| 2026-04-25 14:07 | 46.49275 | -118.50694 | 25262 ft | 410 kts | 35° |
| 2026-04-25 14:07 | 46.51626 | -118.48372 | 24683 ft | 408 kts | 34° |
| 2026-04-25 14:07 | 46.53966 | -118.46061 | 24165 ft | 405 kts | 34° |
| 2026-04-25 14:07 | 46.56278 | -118.43775 | 23687 ft | 401 kts | 34° |
| 2026-04-25 14:08 | 46.58574 | -118.41501 | 23144 ft | 397 kts | 34° |
| 2026-04-25 14:08 | 46.60848 | -118.39245 | 22607 ft | 394 kts | 34° |
| 2026-04-25 14:08 | 46.63103 | -118.37005 | 22101 ft | 391 kts | 34° |
| 2026-04-25 14:08 | 46.65336 | -118.34781 | 21613 ft | 388 kts | 34° |
| 2026-04-25 14:09 | 46.67554 | -118.32570 | 21146 ft | 385 kts | 34° |
| 2026-04-25 14:09 | 46.69753 | -118.30376 | 20676 ft | 382 kts | 34° |
| 2026-04-25 14:09 | 46.71939 | -118.28194 | 20185 ft | 380 kts | 34° |
| 2026-04-25 14:09 | 46.73407 | -118.26727 | 19865 ft | 379 kts | 34° |
| 2026-04-25 14:10 | 46.76286 | -118.23852 | 19366 ft | 378 kts | 34° |
| 2026-04-25 14:10 | 46.78447 | -118.21694 | 19002 ft | 376 kts | 34° |
| 2026-04-25 14:10 | 46.80599 | -118.19538 | 18642 ft | 374 kts | 34° |
| 2026-04-25 14:10 | 46.82737 | -118.17394 | 18281 ft | 372 kts | 34° |
| 2026-04-25 14:11 | 46.84870 | -118.15255 | 17860 ft | 370 kts | 34° |
| 2026-04-25 14:11 | 46.86978 | -118.13139 | 17447 ft | 366 kts | 34° |
| 2026-04-25 14:11 | 46.89068 | -118.11040 | 17033 ft | 364 kts | 34° |
| 2026-04-25 14:11 | 46.91149 | -118.08949 | 16636 ft | 362 kts | 34° |
| 2026-04-25 14:12 | 46.93244 | -118.06840 | 16236 ft | 360 kts | 34° |
| 2026-04-25 14:12 | 46.95277 | -118.04791 | 15856 ft | 359 kts | 34° |
| 2026-04-25 14:12 | 46.97324 | -118.02724 | 15462 ft | 357 kts | 34° |
| 2026-04-25 14:12 | 46.99393 | -118.00660 | 15076 ft | 355 kts | 31° |
| 2026-04-25 14:13 | 47.01564 | -117.98981 | 14694 ft | 352 kts | 23° |
| 2026-04-25 14:13 | 47.03799 | -117.97527 | 14315 ft | 350 kts | 23° |
| 2026-04-25 14:13 | 47.06017 | -117.96075 | 13949 ft | 348 kts | 23° |
| 2026-04-25 14:13 | 47.08221 | -117.94631 | 13553 ft | 346 kts | 23° |
| 2026-04-25 14:14 | 47.10414 | -117.93197 | 13139 ft | 344 kts | 23° |
| 2026-04-25 14:14 | 47.12594 | -117.91768 | 12725 ft | 342 kts | 23° |
| 2026-04-25 14:14 | 47.14763 | -117.90345 | 12324 ft | 340 kts | 23° |
| 2026-04-25 14:14 | 47.16919 | -117.88930 | 11926 ft | 339 kts | 23° |
| 2026-04-25 14:15 | 47.19067 | -117.87519 | 11533 ft | 337 kts | 23° |
| 2026-04-25 14:15 | 47.19760 | -117.87063 | 11415 ft | 337 kts | 23° |
| 2026-04-25 14:15 | 47.23337 | -117.84715 | 10765 ft | 335 kts | 23° |
| 2026-04-25 14:15 | 47.25456 | -117.83321 | 10387 ft | 333 kts | 23° |
| 2026-04-25 14:16 | 47.27566 | -117.81928 | 10053 ft | 331 kts | 23° |
| 2026-04-25 14:16 | 47.29633 | -117.80560 | 9990 ft | 317 kts | 23° |
| 2026-04-25 14:16 | 47.31587 | -117.79264 | 9998 ft | 300 kts | 23° |
| 2026-04-25 14:16 | 47.33448 | -117.78029 | 10001 ft | 289 kts | 23° |
| 2026-04-25 14:17 | 47.35278 | -117.76818 | 10002 ft | 288 kts | 23° |
| 2026-04-25 14:17 | 47.37105 | -117.75610 | 10000 ft | 287 kts | 23° |
| 2026-04-25 14:17 | 47.38928 | -117.74403 | 9998 ft | 287 kts | 23° |
| 2026-04-25 14:17 | 47.40755 | -117.73201 | 9997 ft | 287 kts | 23° |
| 2026-04-25 14:18 | 47.42583 | -117.72009 | 10001 ft | 287 kts | 22° |
| 2026-04-25 14:18 | 47.44412 | -117.70803 | 9995 ft | 288 kts | 23° |
| 2026-04-25 14:18 | 47.46245 | -117.69589 | 9997 ft | 289 kts | 23° |
| 2026-04-25 14:18 | 47.48088 | -117.68380 | 9994 ft | 290 kts | 23° |
| 2026-04-25 14:19 | 47.49933 | -117.67171 | 9977 ft | 290 kts | 23° |
| 2026-04-25 14:19 | 47.51779 | -117.65962 | 9812 ft | 290 kts | 23° |
| 2026-04-25 14:19 | 47.53616 | -117.64760 | 9571 ft | 289 kts | 23° |
| 2026-04-25 14:19 | 47.55472 | -117.63544 | 9305 ft | 287 kts | 23° |
| 2026-04-25 14:20 | 47.57298 | -117.62347 | 9025 ft | 286 kts | 23° |
| 2026-04-25 14:20 | 47.57885 | -117.61963 | 8939 ft | 282 kts | 23° |
| 2026-04-25 14:20 | 47.60771 | -117.60064 | 8490 ft | 264 kts | 23° |
| 2026-04-25 14:20 | 47.62449 | -117.58958 | 8246 ft | 264 kts | 23° |
| 2026-04-25 14:21 | 47.64124 | -117.57853 | 7969 ft | 262 kts | 23° |
| 2026-04-25 14:21 | 47.65787 | -117.56756 | 7687 ft | 261 kts | 23° |
| 2026-04-25 14:21 | 47.67410 | -117.55581 | 7407 ft | 260 kts | 30° |
| 2026-04-25 14:21 | 47.68924 | -117.54115 | 7128 ft | 259 kts | 33° |
| 2026-04-25 14:22 | 47.70408 | -117.52602 | 6855 ft | 258 kts | 34° |
| 2026-04-25 14:22 | 47.71886 | -117.51088 | 6575 ft | 258 kts | 34° |
| 2026-04-25 14:22 | 47.73359 | -117.49582 | 6287 ft | 257 kts | 34° |
| 2026-04-25 14:22 | 47.74824 | -117.48096 | 6081 ft | 253 kts | 34° |
| 2026-04-25 14:23 | 47.76266 | -117.46645 | 5858 ft | 248 kts | 34° |
| 2026-04-25 14:23 | 47.77679 | -117.45237 | 5663 ft | 242 kts | 34° |
| 2026-04-25 14:23 | 47.79015 | -117.43748 | 5452 ft | 238 kts | 42° |
| 2026-04-25 14:23 | 47.80185 | -117.42058 | 5247 ft | 232 kts | 51° |
| 2026-04-25 14:24 | 47.81195 | -117.40202 | 5092 ft | 229 kts | 53° |
| 2026-04-25 14:24 | 47.81995 | -117.38217 | 5007 ft | 218 kts | 74° |
| 2026-04-25 14:24 | 47.82164 | -117.36076 | 5014 ft | 205 kts | 100° |
| 2026-04-25 14:24 | 47.81724 | -117.34118 | 5022 ft | 196 kts | 122° |
| 2026-04-25 14:25 | 47.80864 | -117.32576 | 5042 ft | 193 kts | 141° |
| 2026-04-25 14:25 | 47.79727 | -117.31576 | 5027 ft | 191 kts | 160° |
| 2026-04-25 14:25 | 47.78425 | -117.31203 | 5019 ft | 191 kts | 179° |
| 2026-04-25 14:25 | 47.77975 | -117.31229 | 5023 ft | 190 kts | 186° |
| 2026-04-25 14:26 | 47.75944 | -117.32468 | 5030 ft | 195 kts | 218° |
| 2026-04-25 14:26 | 47.74980 | -117.33880 | 5029 ft | 195 kts | 224° |
| 2026-04-25 14:26 | 47.74037 | -117.35315 | 5028 ft | 192 kts | 224° |
| 2026-04-25 14:26 | 47.73109 | -117.36725 | 5026 ft | 190 kts | 224° |
| 2026-04-25 14:27 | 47.72194 | -117.38112 | 4939 ft | 186 kts | 224° |
| 2026-04-25 14:27 | 47.71302 | -117.39463 | 4736 ft | 181 kts | 224° |
| 2026-04-25 14:27 | 47.70441 | -117.40768 | 4515 ft | 170 kts | 223° |
| 2026-04-25 14:27 | 47.69613 | -117.42020 | 4282 ft | 170 kts | 223° |
| 2026-04-25 14:28 | 47.68788 | -117.43268 | 4050 ft | 169 kts | 223° |
| 2026-04-25 14:28 | 47.67965 | -117.44512 | 3815 ft | 169 kts | 223° |
| 2026-04-25 14:28 | 47.67162 | -117.45727 | 3560 ft | 157 kts | 222° |
| 2026-04-25 14:28 | 47.66427 | -117.46836 | 3357 ft | 145 kts | 224° |
| 2026-04-25 14:29 | 47.65728 | -117.47892 | 3135 ft | 143 kts | 224° |
| 2026-04-25 14:29 | 47.65025 | -117.48953 | 2917 ft | 143 kts | 224° |
| 2026-04-25 14:29 | 47.64338 | -117.49988 | 2719 ft | 143 kts | 225° |
| 2026-04-25 14:29 | 47.63633 | -117.51053 | 2516 ft | 143 kts | 225° |
| 2026-04-25 14:30 | 47.62937 | -117.52103 | 2384 ft | 139 kts | 225° |
| 2026-04-25 14:30 | 47.62023 | -117.53482 | 2366 ft | 45 kts | 225° |
| 2026-04-25 14:30 | 47.61843 | -117.53760 | 2368 ft | 28 kts | 232° |
| 2026-04-25 14:31 | 47.61812 | -117.53961 | 2369 ft | 20 kts | 272° |
| 2026-04-25 14:31 | 47.61832 | -117.54119 | 2367 ft | 12 kts | 322° |
| 2026-04-25 14:31 | 47.61908 | -117.54061 | 2367 ft | 15 kts | 48° |
| 2026-04-25 14:31 | 47.61984 | -117.53939 | 2367 ft | 18 kts | 45° |
| 2026-04-25 14:32 | 47.62078 | -117.53804 | 2367 ft | 20 kts | 44° |
| 2026-04-25 14:32 | 47.62168 | -117.53703 | 2367 ft | 13 kts | 5° |
| 2026-04-25 14:32 | 47.62244 | -117.53783 | 2367 ft | 13 kts | 313° |
| 2026-04-25 14:32 | 47.62265 | -117.53867 | 2367 ft | 10 kts | 277° |
| 2026-04-25 14:33 | 47.62268 | -117.53916 | 2367 ft | 5 kts | 281° |
| 2026-04-25 14:33 | 47.62316 | -117.53928 | 2367 ft | 7 kts | 0° |
| 2026-04-25 14:33 | 47.62336 | -117.53928 | 2367 ft | 0 kts | 1° |